Time;durP1;ratioP1;P1;durP2;ratioP2;P2;SDS_P1;SDS_P2;PMS_P1;PMS_P2;Temp;Humidity;BMP_temperature;BMP_pressure;BME280_temperature;BME280_humidity;BME280_pressure;Samples;Min_cycle;Max_cycle;Signal;HPM_P1;HPM_P2
2021/04/14 00:01:36;;;;;;;9.05;3.00;;;;;;;0.26;79.51;103232.03;4957836;28;20133;-70
2021/04/14 00:04:01;;;;;;;6.93;3.10;;;;;;;0.16;79.87;103222.59;4989957;28;20043;-70
2021/04/14 00:06:27;;;;;;;5.57;2.80;;;;;;;0.28;79.98;103230.31;4977636;28;20042;-70
2021/04/14 00:08:52;;;;;;;10.25;3.47;;;;;;;0.28;79.89;103234.59;4972964;28;20117;-70
2021/04/14 00:11:20;;;;;;;7.65;3.58;;;;;;;0.30;80.02;103233.75;4971942;28;20034;-70
2021/04/14 00:13:46;;;;;;;7.13;3.30;;;;;;;0.31;80.36;103232.03;4985339;28;20093;-70
2021/04/14 00:16:14;;;;;;;10.43;3.75;;;;;;;0.43;79.53;103232.09;4975730;28;20035;-70
2021/04/14 00:18:40;;;;;;;6.35;3.17;;;;;;;0.38;79.60;103218.41;4969275;28;20465;-70
2021/04/14 00:21:06;;;;;;;6.07;3.30;;;;;;;0.54;80.77;103235.53;4971045;28;20658;-70
2021/04/14 00:23:32;;;;;;;6.07;3.28;;;;;;;0.41;80.55;103200.47;4967637;28;20443;-70
2021/04/14 00:25:58;;;;;;;11.15;3.38;;;;;;;0.54;80.10;103212.47;4971818;28;20493;-70
2021/04/14 00:28:24;;;;;;;7.85;3.13;;;;;;;0.56;80.37;103223.59;4972857;28;20038;-71
2021/04/14 00:30:51;;;;;;;8.70;3.42;;;;;;;0.59;80.52;103223.59;4974065;28;20184;-70
2021/04/14 00:33:18;;;;;;;6.30;2.85;;;;;;;0.53;80.56;103218.41;4985762;28;20030;-70
2021/04/14 00:35:43;;;;;;;7.35;3.10;;;;;;;0.56;80.87;103226.16;4970543;28;20043;-70
2021/04/14 00:38:12;;;;;;;5.80;2.60;;;;;;;0.63;80.45;103215.88;4970254;28;20046;-70
2021/04/14 00:40:41;;;;;;;4.10;2.83;;;;;;;0.66;79.92;103221.00;4966628;28;20158;-70
2021/04/14 00:43:29;;;;;;;3.67;2.85;;;;;;;0.67;80.24;103223.59;4972046;28;20078;-70
2021/04/14 00:45:56;;;;;;;6.57;2.70;;;;;;;0.70;80.22;103221.00;4974852;28;20084;-70
2021/04/14 00:48:22;;;;;;;5.28;2.65;;;;;;;0.66;79.66;103211.63;4982237;28;20606;-70
2021/04/14 00:50:48;;;;;;;4.63;2.35;;;;;;;0.63;79.45;103211.63;4972305;28;20361;-70
2021/04/14 00:53:15;;;;;;;4.38;2.30;;;;;;;0.53;79.43;103210.72;4974107;28;20461;-70
2021/04/14 00:55:43;;;;;;;3.67;2.47;;;;;;;0.47;79.41;103197.91;4966956;28;20034;-70
2021/04/14 00:58:09;;;;;;;4.68;2.10;;;;;;;0.46;78.68;103200.47;4969537;28;20146;-73
2021/04/14 01:00:38;;;;;;;4.80;2.10;;;;;;;0.33;79.41;103183.34;4977782;28;20125;-70
2021/04/14 01:03:10;;;;;;;7.38;2.50;;;;;;;0.36;79.06;103202.16;4970867;28;20034;-70
2021/04/14 01:05:37;;;;;;;5.88;2.35;;;;;;;0.32;78.91;103199.56;4969104;28;20045;-69
2021/04/14 01:08:04;;;;;;;2.63;1.80;;;;;;;0.25;79.59;103199.56;4970952;28;20051;-70
2021/04/14 01:10:30;;;;;;;6.95;2.00;;;;;;;0.22;79.82;103204.69;4982982;28;20047;-69
2021/04/14 01:12:55;;;;;;;2.90;1.60;;;;;;;0.16;79.71;103201.22;4978080;28;20031;-69
2021/04/14 01:15:29;;;;;;;2.72;1.52;;;;;;;0.10;79.65;103201.22;4973737;28;20109;-70
2021/04/14 01:17:55;;;;;;;3.90;1.40;;;;;;;0.06;79.25;103200.38;4970028;28;20035;-70
2021/04/14 01:20:20;;;;;;;2.00;1.27;;;;;;;0.01;79.21;103201.22;4972068;28;20049;-70
2021/04/14 01:22:46;;;;;;;3.08;1.63;;;;;;;-0.08;79.56;103184.94;4981179;28;20175;-70
2021/04/14 01:25:17;;;;;;;2.80;1.67;;;;;;;-0.02;79.77;103202.03;4979677;28;20523;-70
2021/04/14 01:27:43;;;;;;;3.75;1.45;;;;;;;-0.07;79.80;103203.72;4977876;28;20133;-69
2021/04/14 01:30:19;;;;;;;3.72;1.52;;;;;;;-0.18;79.85;103187.44;4983528;28;20445;-69
2021/04/14 01:32:48;;;;;;;4.53;1.50;;;;;;;-0.08;79.81;103202.84;4957613;28;20504;-69
2021/04/14 01:35:14;;;;;;;3.75;1.73;;;;;;;-0.13;80.47;103196.88;4982675;28;20053;-70
2021/04/14 01:37:40;;;;;;;3.35;1.38;;;;;;;-0.20;80.55;103195.09;4985270;28;20144;-70
2021/04/14 01:40:08;;;;;;;4.53;1.80;;;;;;;-0.25;80.08;103184.00;4982951;28;20042;-70
2021/04/14 01:42:34;;;;;;;3.47;1.23;;;;;;;-0.24;80.25;103201.06;4974996;28;20041;-71
2021/04/14 01:45:00;;;;;;;7.53;1.48;;;;;;;-0.22;80.34;103194.25;4970560;28;20055;-70
2021/04/14 01:47:26;;;;;;;3.83;1.50;;;;;;;-0.21;80.42;103207.91;4985696;28;20508;-71
2021/04/14 01:49:51;;;;;;;2.17;1.55;;;;;;;-0.22;80.88;103208.75;4974812;28;20034;-71
2021/04/14 01:52:17;;;;;;;1.77;1.15;;;;;;;-0.22;80.41;103212.19;4975288;28;20093;-70
2021/04/14 01:54:42;;;;;;;6.15;1.40;;;;;;;-0.27;79.89;103211.31;4969105;28;20047;-70
2021/04/14 01:57:08;;;;;;;2.13;1.50;;;;;;;-0.33;79.58;103207.03;4978772;28;20038;-71
2021/04/14 01:59:33;;;;;;;1.80;1.20;;;;;;;-0.33;79.29;103203.59;4973479;28;20107;-70
2021/04/14 02:01:59;;;;;;;3.08;1.17;;;;;;;-0.46;79.49;103204.38;4979463;28;20125;-70
2021/04/14 02:04:25;;;;;;;1.85;1.10;;;;;;;-0.44;80.59;103216.31;4989916;28;20093;-71
2021/04/14 02:06:50;;;;;;;1.90;0.98;;;;;;;-0.51;80.15;103203.50;4981973;28;20477;-71
2021/04/14 02:09:17;;;;;;;4.30;1.50;;;;;;;-0.51;80.64;103206.91;4977904;28;20054;-70
2021/04/14 02:11:43;;;;;;;1.83;1.25;;;;;;;-0.73;80.27;103184.56;4984237;28;20709;-70
2021/04/14 02:14:10;;;;;;;1.92;1.00;;;;;;;-0.49;80.42;103207.78;4976394;28;20126;-70
2021/04/14 02:16:36;;;;;;;1.25;1.05;;;;;;;-0.64;80.40;103189.75;4973725;28;20106;-70
2021/04/14 02:19:03;;;;;;;2.38;1.08;;;;;;;-0.53;81.31;103210.31;4973077;28;20050;-70
2021/04/14 02:21:28;;;;;;;3.28;1.30;;;;;;;-0.57;81.56;103203.44;4971473;28;20149;-71
2021/04/14 02:23:55;;;;;;;3.58;1.40;;;;;;;-0.62;nan;103201.72;4970635;28;20038;-70
2021/04/14 02:26:22;;;;;;;2.97;1.33;;;;;;;-0.61;82.57;103205.97;4982913;28;20563;-70
2021/04/14 02:28:49;;;;;;;3.83;1.30;;;;;;;-0.58;82.19;103204.28;4969875;28;20053;-70
2021/04/14 02:31:30;;;;;;;1.85;1.35;;;;;;;-0.60;82.18;103209.41;4972520;28;20461;-70
2021/04/14 02:34:12;;;;;;;1.60;1.40;;;;;;;-0.72;82.27;103189.72;4968781;28;20035;-70
2021/04/14 02:36:39;;;;;;;3.60;1.73;;;;;;;-0.63;82.18;103204.25;4977904;28;20038;-70
2021/04/14 02:39:07;;;;;;;1.55;1.45;;;;;;;-0.59;82.35;103203.44;4973913;28;20097;-70
2021/04/14 02:41:32;;;;;;;3.47;1.70;;;;;;;-0.63;82.02;103202.56;4983289;28;20043;-70
2021/04/14 02:43:58;;;;;;;4.65;1.90;;;;;;;-0.71;82.22;103182.91;4971498;28;20619;-70
2021/04/14 02:46:23;;;;;;;4.10;1.83;;;;;;;-0.70;81.24;103194.84;4974866;28;20416;-70
2021/04/14 02:48:49;;;;;;;1.60;1.50;;;;;;;-0.70;81.60;103198.25;4954119;28;20132;-70
2021/04/14 02:51:15;;;;;;;6.05;1.60;;;;;;;-0.65;81.59;103201.69;4970430;28;20034;-70
2021/04/14 02:53:40;;;;;;;1.40;1.30;;;;;;;-0.63;81.59;103191.47;4969610;28;20042;-70
2021/04/14 02:56:06;;;;;;;2.58;1.27;;;;;;;-0.60;81.57;103191.47;4976475;28;20099;-70
2021/04/14 02:58:31;;;;;;;4.13;1.77;;;;;;;-0.55;82.59;103197.47;4973876;28;20432;-69
2021/04/14 03:00:57;;;;;;;1.70;1.60;;;;;;;-0.55;82.40;103197.47;4975692;28;20069;-69
2021/04/14 03:03:26;;;;;;;2.03;1.70;;;;;;;-0.51;82.62;103195.81;4971415;28;20069;-70
2021/04/14 03:05:52;;;;;;;5.95;1.98;;;;;;;-0.46;82.70;103192.44;4977079;28;20043;-69
2021/04/14 03:08:17;;;;;;;2.65;1.83;;;;;;;-0.53;81.72;103172.78;4969093;28;20396;-70
2021/04/14 03:10:45;;;;;;;4.40;2.00;;;;;;;-0.41;82.08;103195.00;4981290;28;20084;-70
2021/04/14 03:13:11;;;;;;;1.85;1.50;;;;;;;-0.38;82.23;103188.19;4970392;28;20345;-69
2021/04/14 03:15:40;;;;;;;1.92;1.55;;;;;;;-0.34;82.03;103189.09;4982645;28;20097;-69
2021/04/14 03:18:07;;;;;;;2.58;1.30;;;;;;;-0.42;82.72;103170.25;4969973;28;20045;-69
2021/04/14 03:20:33;;;;;;;2.80;1.48;;;;;;;-0.29;81.67;103174.59;4984882;28;20492;-69
2021/04/14 03:23:02;;;;;;;3.00;1.63;;;;;;;-0.22;81.93;103188.28;4977037;28;20050;-70
2021/04/14 03:25:33;;;;;;;2.50;1.52;;;;;;;-0.24;82.05;103178.03;4981221;28;20042;-70
2021/04/14 03:28:00;;;;;;;3.03;1.20;;;;;;;-0.10;82.01;103185.78;4969635;28;20541;-69
2021/04/14 03:30:26;;;;;;;2.10;1.25;;;;;;;-0.11;81.96;103184.06;4978686;28;20044;-69
2021/04/14 03:32:51;;;;;;;2.78;1.30;;;;;;;-0.14;81.33;103172.09;4967919;28;20031;-69
2021/04/14 03:35:19;;;;;;;3.20;1.10;;;;;;;-0.17;80.92;103169.53;4975567;28;20042;-70
2021/04/14 03:37:45;;;;;;;3.05;1.45;;;;;;;-0.08;81.28;103184.06;4969388;28;20134;-69
2021/04/14 03:40:11;;;;;;;4.95;1.90;;;;;;;-0.02;81.07;103191.78;4984137;28;20127;-69
2021/04/14 03:42:37;;;;;;;2.33;1.52;;;;;;;-0.11;81.35;103173.81;4968170;28;20031;-70
2021/04/14 03:45:11;;;;;;;1.30;1.20;;;;;;;-0.06;81.62;103187.50;4981223;28;20113;-70
2021/04/14 03:47:37;;;;;;;2.40;1.58;;;;;;;-0.23;80.57;103182.28;4971348;28;20035;-70
2021/04/14 03:50:05;;;;;;;2.70;1.42;;;;;;;-0.20;82.04;103174.63;4970066;28;20043;-70
2021/04/14 03:52:33;;;;;;;3.42;1.40;;;;;;;-0.18;81.92;103175.50;4966559;28;20039;-69
2021/04/14 03:54:58;;;;;;;2.42;1.30;;;;;;;-0.12;81.71;103188.34;4963832;28;20046;-70
2021/04/14 03:57:24;;;;;;;2.45;1.38;;;;;;;-0.12;81.26;103190.91;4980584;28;20089;-70
2021/04/14 03:59:50;;;;;;;2.63;1.40;;;;;;;-0.15;82.59;103184.91;4971387;28;20051;-70
2021/04/14 04:02:15;;;;;;;2.25;1.17;;;;;;;-0.31;81.95;103174.59;4974840;28;20504;-69
2021/04/14 04:04:41;;;;;;;2.88;1.58;;;;;;;-0.23;81.96;103181.44;4969998;28;20607;-70
2021/04/14 04:07:06;;;;;;;1.65;1.38;;;;;;;-0.21;81.95;103180.59;4973421;28;20101;-70
2021/04/14 04:09:32;;;;;;;4.40;1.30;;;;;;;-0.17;82.09;103187.47;4969790;28;20114;-69
2021/04/14 04:11:57;;;;;;;1.73;1.23;;;;;;;-0.17;82.71;103184.91;4971436;28;20034;-69
2021/04/14 04:14:27;;;;;;;3.30;1.33;;;;;;;-0.14;81.83;103182.34;4979055;28;20117;-69
2021/04/14 04:16:52;;;;;;;1.58;1.40;;;;;;;-0.23;82.20;103181.44;4972593;28;20121;-69
2021/04/14 04:19:17;;;;;;;2.42;1.58;;;;;;;-0.24;82.29;103193.41;4973082;28;20109;-69
2021/04/14 04:21:43;;;;;;;2.60;1.20;;;;;;;-0.24;83.62;103193.41;4968902;28;20170;-69
2021/04/14 04:24:08;;;;;;;3.40;1.85;;;;;;;-0.18;83.34;103195.13;4968491;28;20035;-69
2021/04/14 04:26:34;;;;;;;3.88;1.30;;;;;;;-0.24;83.35;103189.97;4969488;28;20034;-69
2021/04/14 04:28:59;;;;;;;2.72;1.05;;;;;;;-0.23;82.76;103192.53;4970422;28;20101;-69
2021/04/14 04:31:25;;;;;;;2.83;1.30;;;;;;;-0.31;83.19;103194.22;4982652;28;20039;-69
2021/04/14 04:33:50;;;;;;;0.93;0.80;;;;;;;-0.35;82.62;103195.91;4967467;28;20042;-70
2021/04/14 04:36:16;;;;;;;3.97;1.38;;;;;;;-0.43;82.40;103189.03;4975275;28;20038;-69
2021/04/14 04:38:41;;;;;;;2.75;1.25;;;;;;;-0.40;82.83;103191.59;4982622;28;20489;-69
2021/04/14 04:41:07;;;;;;;0.85;0.80;;;;;;;-0.49;83.40;103197.53;4972925;28;20850;-68
2021/04/14 04:43:33;;;;;;;1.77;1.30;;;;;;;-0.72;83.23;103183.72;4971174;28;20082;-70
2021/04/14 04:45:58;;;;;;;2.88;1.33;;;;;;;-0.63;83.54;103200.00;4976668;28;20150;-69
2021/04/14 04:48:24;;;;;;;4.03;1.20;;;;;;;-0.59;85.46;103206.00;4975415;28;20045;-69
2021/04/14 04:50:50;;;;;;;4.05;1.17;;;;;;;-0.56;85.10;103203.44;4974242;28;20416;-69
2021/04/14 04:53:22;;;;;;;2.92;1.45;;;;;;;-0.58;84.11;103201.72;4976748;28;20051;-69
2021/04/14 04:55:49;;;;;;;4.30;1.25;;;;;;;-0.60;84.38;103204.28;4974237;28;20167;-69
2021/04/14 04:58:14;;;;;;;1.30;1.20;;;;;;;-0.59;84.35;103205.13;4960049;28;20050;-70
2021/04/14 05:00:43;;;;;;;4.50;1.23;;;;;;;-0.65;84.51;103204.25;4975713;28;20038;-70
2021/04/14 05:03:12;;;;;;;2.65;1.45;;;;;;;-0.67;84.32;103205.94;4977062;28;20046;-69
2021/04/14 05:05:38;;;;;;;3.40;1.38;;;;;;;-0.72;84.79;103184.59;4974354;28;20042;-68
2021/04/14 05:08:10;;;;;;;5.18;1.30;;;;;;;-0.63;84.67;103202.56;4976307;28;20096;-69
2021/04/14 05:10:36;;;;;;;1.30;1.20;;;;;;;-0.62;85.05;103211.09;4976790;28;20042;-69
2021/04/14 05:13:03;;;;;;;2.70;1.48;;;;;;;-0.63;84.47;103205.13;4976659;28;20093;-70
2021/04/14 05:15:32;;;;;;;9.15;1.50;;;;;;;-0.67;84.62;103213.63;4975161;28;20590;-69
2021/04/14 05:17:59;;;;;;;2.63;1.55;;;;;;;-0.64;85.42;103216.19;4974455;28;20033;-71
2021/04/14 05:20:25;;;;;;;3.85;1.95;;;;;;;-0.63;85.76;103217.91;4976872;28;20042;-70
2021/04/14 05:22:50;;;;;;;5.68;2.10;;;;;;;-0.65;85.25;103219.63;4970961;28;20034;-69
2021/04/14 05:25:20;;;;;;;7.68;3.10;;;;;;;-0.66;85.39;103214.47;4982054;28;20428;-70
2021/04/14 05:27:46;;;;;;;8.57;4.53;;;;;;;-0.58;85.64;103222.19;4976735;28;20104;-72
2021/04/14 05:30:13;;;;;;;9.20;5.03;;;;;;;-0.63;85.86;103204.25;4975741;28;20531;-69
2021/04/14 05:32:40;;;;;;;5.78;3.40;;;;;;;-0.46;86.35;103217.16;4972179;28;20026;-70
2021/04/14 05:35:06;;;;;;;8.10;3.20;;;;;;;-0.44;85.78;103226.56;4980009;28;20081;-70
2021/04/14 05:37:32;;;;;;;7.50;2.75;;;;;;;-0.42;85.46;103224.88;4973995;28;20096;-69
2021/04/14 05:39:58;;;;;;;2.65;1.73;;;;;;;-0.33;85.12;103221.53;4983589;28;20046;-70
2021/04/14 05:42:23;;;;;;;2.50;1.55;;;;;;;-0.29;84.10;103223.25;4968671;28;20074;-70
2021/04/14 05:44:50;;;;;;;3.60;2.08;;;;;;;-0.32;84.53;103218.13;4973328;28;20039;-69
2021/04/14 05:47:15;;;;;;;3.03;1.98;;;;;;;-0.21;84.25;103228.41;4975794;28;20786;-70
2021/04/14 05:49:43;;;;;;;3.10;1.98;;;;;;;-0.19;83.78;103226.69;4976867;28;20388;-70
2021/04/14 05:52:08;;;;;;;4.15;1.75;;;;;;;-0.20;84.23;103227.53;4978606;28;20117;-70
2021/04/14 05:54:34;;;;;;;3.95;1.83;;;;;;;-0.10;83.75;103231.88;4972842;28;20045;-69
2021/04/14 05:56:59;;;;;;;4.43;1.90;;;;;;;-0.08;83.40;103235.31;4978271;28;20041;-69
2021/04/14 05:59:26;;;;;;;3.05;1.75;;;;;;;-0.02;83.73;103236.19;4977108;28;20063;-69
2021/04/14 06:01:51;;;;;;;3.15;2.00;;;;;;;-0.03;84.21;103226.78;4983108;28;20463;-69
2021/04/14 06:04:17;;;;;;;6.85;2.20;;;;;;;0.12;84.32;103235.38;4982427;28;20031;-70
2021/04/14 06:06:43;;;;;;;7.28;2.30;;;;;;;0.20;83.78;103233.72;4973543;28;20031;-69
2021/04/14 06:09:09;;;;;;;5.72;2.53;;;;;;;0.34;84.76;103239.72;4975396;28;20525;-70
2021/04/14 06:11:36;;;;;;;5.18;2.60;;;;;;;0.20;83.88;103205.53;4976901;28;20026;-69
2021/04/14 06:14:03;;;;;;;3.50;2.00;;;;;;;0.50;82.79;103226.09;4973543;28;20043;-69
2021/04/14 06:16:29;;;;;;;4.75;2.05;;;;;;;0.73;82.63;103233.00;4971704;28;20034;-69
2021/04/14 06:18:54;;;;;;;5.72;2.10;;;;;;;0.87;82.76;103233.84;4978317;28;20555;-69
2021/04/14 06:21:20;;;;;;;4.13;2.25;;;;;;;0.97;81.55;103238.16;4977724;28;20493;-69
2021/04/14 06:23:47;;;;;;;3.47;1.70;;;;;;;1.01;81.69;103234.72;4981760;28;20444;-69
2021/04/14 06:26:25;;;;;;;3.13;1.98;;;;;;;1.14;81.33;103238.16;4975215;28;20397;-69
2021/04/14 06:28:54;;;;;;;3.63;1.50;;;;;;;1.34;80.73;103235.59;4976434;28;20413;-69
2021/04/14 06:31:21;;;;;;;7.20;1.70;;;;;;;1.40;80.76;103231.28;4979643;28;20050;-69
2021/04/14 06:33:49;;;;;;;5.93;1.50;;;;;;;1.43;80.27;103221.00;4973435;28;20037;-69
2021/04/14 06:36:15;;;;;;;5.28;1.58;;;;;;;1.70;79.61;103242.38;4982775;28;20038;-70
2021/04/14 06:38:46;;;;;;;9.00;2.08;;;;;;;1.83;79.05;103240.63;4969323;28;20049;-69
2021/04/14 06:41:52;;;;;;;2.33;1.42;;;;;;;1.87;78.40;103242.34;4980982;28;20039;-70
2021/04/14 06:44:26;;;;;;;3.22;1.73;;;;;;;1.98;77.52;103249.16;4982779;28;20042;-69
2021/04/14 06:46:53;;;;;;;6.30;1.67;;;;;;;2.08;77.27;103255.97;4972850;28;20035;-69
2021/04/14 06:50:08;;;;;;;3.15;1.60;;;;;;;2.11;77.21;103253.38;4969946;28;20097;-69
2021/04/14 06:52:49;;;;;;;5.88;1.40;;;;;;;2.24;77.56;103259.31;4958679;28;20395;-69
2021/04/14 06:55:37;;;;;;;3.95;1.10;;;;;;;2.27;76.09;103246.44;4973895;28;20117;-70
2021/04/14 06:58:08;;;;;;;1.77;1.20;;;;;;;2.45;75.47;103250.66;4977115;28;20041;-70
2021/04/14 07:00:42;;;;;;;2.00;1.20;;;;;;;2.51;74.72;103252.31;4969023;28;20051;-69
2021/04/14 07:03:11;;;;;;;2.10;1.20;;;;;;;2.65;74.69;103247.97;4980965;28;20097;-69
2021/04/14 07:05:40;;;;;;;2.13;1.40;;;;;;;2.78;74.70;103256.47;4969892;28;20046;-70
2021/04/14 07:08:15;;;;;;;4.13;1.40;;;;;;;2.87;73.88;103248.66;4973512;28;20065;-70
2021/04/14 07:10:41;;;;;;;2.13;1.13;;;;;;;2.84;74.39;103239.25;4974016;28;20235;-69
2021/04/14 07:13:10;;;;;;;6.15;1.60;;;;;;;3.04;74.45;103250.25;4969815;28;20042;-70
2021/04/14 07:15:36;;;;;;;5.68;2.00;;;;;;;3.10;73.76;103248.50;4975874;28;20039;-70
2021/04/14 07:18:05;;;;;;;5.18;1.48;;;;;;;3.11;73.92;103248.50;4973230;28;20034;-69
2021/04/14 07:20:42;;;;;;;5.13;1.13;;;;;;;3.13;73.03;103240.75;4978554;28;20038;-69
2021/04/14 07:23:29;;;;;;;10.25;1.70;;;;;;;3.17;73.49;103240.72;4967463;28;20119;-70
2021/04/14 07:26:09;;;;;;;6.38;1.20;;;;;;;3.37;72.79;103249.97;4970291;28;20058;-70
2021/04/14 07:29:00;;;;;;;5.93;1.23;;;;;;;3.44;72.63;103249.06;4970646;28;20121;-69
2021/04/14 07:31:34;;;;;;;7.55;1.35;;;;;;;3.52;72.07;103245.53;4973288;28;20126;-69
2021/04/14 07:34:14;;;;;;;;;;;;;;;3.60;70.93;103254.06;4971031;28;20070;-69
2021/04/14 07:37:02;;;;;;;2.33;1.25;;;;;;;3.58;70.87;103226.59;4974846;28;19929;-70
2021/04/14 07:39:39;;;;;;;4.38;1.50;;;;;;;3.87;71.81;103242.59;4970634;28;20515;-70
2021/04/14 07:42:25;;;;;;;6.00;0.98;;;;;;;4.00;69.57;103250.19;4969776;28;20092;-69
2021/04/14 07:45:04;;;;;;;4.13;1.73;;;;;;;4.03;70.22;103247.56;4980201;28;20132;-69
2021/04/14 07:47:30;;;;;;;7.72;1.42;;;;;;;4.09;68.66;103256.09;4973340;28;20163;-69
2021/04/14 07:49:57;;;;;;;8.50;1.40;;;;;;;4.17;68.90;103251.69;4969601;28;20127;-70
2021/04/14 07:52:28;;;;;;;5.63;1.08;;;;;;;4.37;67.34;103256.59;4971495;28;20442;-70
2021/04/14 07:54:56;;;;;;;5.63;1.40;;;;;;;4.43;67.77;103241.03;4975424;28;20116;-69
2021/04/14 07:57:30;;;;;;;6.13;1.10;;;;;;;4.55;66.68;103250.34;4976225;28;20038;-69
2021/04/14 08:00:32;;;;;;;6.00;1.40;;;;;;;4.69;65.51;103243.25;4973684;28;20059;-69
2021/04/14 08:03:22;;;;;;;5.65;1.33;;;;;;;4.84;64.09;103244.72;4972007;28;20063;-69
2021/04/14 08:05:47;;;;;;;4.07;1.05;;;;;;;5.22;63.85;103233.81;4971921;28;20079;-70
2021/04/14 08:08:16;;;;;;;9.25;1.42;;;;;;;5.56;63.25;103238.34;4955926;28;20459;-70
2021/04/14 08:10:56;;;;;;;4.55;1.13;;;;;;;5.82;62.03;103240.47;4979743;28;20031;-69
2021/04/14 08:13:26;;;;;;;4.13;1.10;;;;;;;5.86;60.52;103242.94;4984255;28;20044;-70
2021/04/14 08:15:53;;;;;;;5.03;0.98;;;;;;;5.97;58.66;103237.63;4974119;28;20057;-69
2021/04/14 08:18:24;;;;;;;3.75;1.00;;;;;;;5.92;59.36;103242.00;4978309;28;20038;-71
2021/04/14 08:21:05;;;;;;;2.80;1.13;;;;;;;5.98;59.14;103245.34;4958703;28;20229;-70
2021/04/14 08:23:31;;;;;;;11.38;1.45;;;;;;;6.26;60.75;103248.19;4857027;28;20729;-70
2021/04/14 08:26:00;;;;;;;7.13;1.13;;;;;;;6.10;58.49;103240.78;4976992;28;20121;-70
2021/04/14 08:28:40;;;;;;;4.72;1.27;;;;;;;5.81;60.50;103243.94;4958950;28;20042;-70
2021/04/14 08:31:49;;;;;;;5.05;0.90;;;;;;;5.73;61.87;103244.91;4967231;28;20030;-70
2021/04/14 08:34:29;;;;;;;3.80;1.10;;;;;;;5.49;61.24;103224.69;4963967;28;20457;-70
2021/04/14 08:37:07;;;;;;;2.60;0.90;;;;;;;6.06;60.29;103252.94;4968180;28;20065;-71
2021/04/14 08:39:36;;;;;;;5.45;0.85;;;;;;;6.09;64.16;103257.19;4953889;28;20039;-70
2021/04/14 08:42:35;;;;;;;3.05;0.90;;;;;;;6.11;63.41;103260.63;4970526;28;20053;-70
2021/04/14 08:45:03;;;;;;;5.88;1.00;;;;;;;6.27;62.88;103249.91;4959303;28;20078;-69
2021/04/14 08:47:32;;;;;;;3.17;0.95;;;;;;;5.73;63.90;103226.81;4963568;28;20035;-70
2021/04/14 08:50:24;;;;;;;1.50;0.80;;;;;;;5.88;64.55;103253.25;4982708;28;20076;-70
2021/04/14 08:52:53;;;;;;;1.88;0.90;;;;;;;5.63;64.56;103247.72;4955559;28;20046;-70
2021/04/14 08:55:23;;;;;;;5.18;1.52;;;;;;;5.64;65.40;103249.41;4966682;28;20113;-70
2021/04/14 08:57:51;;;;;;;4.18;0.93;;;;;;;5.31;64.23;103240.53;4968465;28;20042;-70
2021/04/14 09:00:17;;;;;;;4.40;1.33;;;;;;;5.32;63.79;103247.41;4955601;28;20061;-70
2021/04/14 09:02:46;;;;;;;2.85;0.90;;;;;;;5.31;63.46;103258.63;4967486;28;20039;-70
2021/04/14 09:05:19;;;;;;;1.00;0.70;;;;;;;5.25;64.67;103253.56;4953297;28;20046;-70
2021/04/14 09:07:46;;;;;;;1.52;0.60;;;;;;;5.50;64.99;103253.97;4977276;28;20026;-70
2021/04/14 09:10:35;;;;;;;3.58;1.00;;;;;;;5.42;62.80;103247.22;4954274;28;20055;-70
2021/04/14 09:13:01;;;;;;;3.40;0.70;;;;;;;5.58;62.97;103237.47;4971367;28;20034;-70
2021/04/14 09:15:27;;;;;;;2.50;0.60;;;;;;;5.51;61.41;103258.28;4954213;28;20045;-70
2021/04/14 09:18:03;;;;;;;0.77;0.50;;;;;;;5.49;60.81;103252.28;4971943;28;20030;-70
2021/04/14 09:20:36;;;;;;;2.67;0.88;;;;;;;5.96;60.50;103244.53;4955756;28;20038;-71
2021/04/14 09:23:09;;;;;;;1.17;0.60;;;;;;;6.15;59.24;103241.56;4983989;28;20505;-70
2021/04/14 09:25:47;;;;;;;3.67;0.80;;;;;;;6.71;56.82;103242.91;4952971;28;20039;-70
2021/04/14 09:28:28;;;;;;;5.22;0.85;;;;;;;7.14;56.13;103239.25;4970399;28;20411;-71
2021/04/14 09:30:57;;;;;;;2.63;0.82;;;;;;;7.35;56.73;103240.44;4959303;28;20039;-70
2021/04/14 09:33:47;;;;;;;3.50;0.82;;;;;;;7.88;55.46;103242.44;4972757;28;20034;-73
2021/04/14 09:36:29;;;;;;;1.73;0.70;;;;;;;7.44;54.04;103241.09;4947724;28;20081;-70
2021/04/14 09:39:08;;;;;;;7.75;0.98;;;;;;;7.65;54.73;103252.63;4976016;28;20030;-70
2021/04/14 09:41:36;;;;;;;5.20;1.00;;;;;;;7.55;54.99;103238.22;4953167;28;20453;-70
2021/04/14 09:44:14;;;;;;;3.10;0.80;;;;;;;7.26;52.89;103246.75;4978110;28;20473;-70
2021/04/14 09:46:53;;;;;;;3.33;1.33;;;;;;;7.46;53.77;103225.47;4958668;28;20034;-70
2021/04/14 09:49:35;;;;;;;4.60;1.10;;;;;;;7.34;52.79;103234.41;4975254;28;20326;-70
2021/04/14 10:16:24;;;;;;;3.30;1.10;;;;;;;7.63;53.19;103214.66;5084230;27;20439;-77
2021/04/14 10:19:00;;;;;;;7.45;1.40;;;;;;;8.14;51.66;103220.97;5087059;28;20114;-77
2021/04/14 10:21:26;;;;;;;4.63;0.70;;;;;;;8.64;52.03;103194.38;5085363;28;20050;-77
2021/04/14 10:24:01;;;;;;;3.80;1.02;;;;;;;9.23;50.76;103209.72;5030050;28;20045;-77
2021/04/14 10:26:28;;;;;;;5.03;1.00;;;;;;;9.54;46.25;103204.31;4992917;28;21317;-77
2021/04/14 10:28:54;;;;;;;5.13;1.13;;;;;;;10.03;46.82;103208.56;5048514;28;20052;-77
2021/04/14 10:31:22;;;;;;;2.53;0.80;;;;;;;9.88;45.23;103201.34;5028159;28;20494;-78
2021/04/14 10:33:48;;;;;;;2.40;0.80;;;;;;;9.52;47.66;103198.31;5050818;28;20457;-79
2021/04/14 10:36:31;;;;;;;2.92;0.70;;;;;;;8.98;47.53;103202.78;5029008;28;20072;-78
2021/04/14 10:39:11;;;;;;;3.65;1.00;;;;;;;8.34;49.18;103194.44;5055411;28;20036;-77
2021/04/14 10:41:37;;;;;;;6.82;1.67;;;;;;;8.14;50.16;103201.94;5028580;28;20028;-78
2021/04/14 10:44:16;;;;;;;4.05;1.00;;;;;;;7.86;48.70;103197.53;5045638;28;20390;-78
2021/04/14 10:46:43;;;;;;;3.08;0.82;;;;;;;7.68;50.98;103199.81;5014969;28;20459;-78
2021/04/14 10:49:26;;;;;;;1.67;0.80;;;;;;;7.71;51.47;103208.34;5052031;28;20029;-76
2021/04/14 10:51:55;;;;;;;2.15;0.80;;;;;;;7.73;49.76;103192.78;5036197;28;20381;-77
2021/04/14 10:54:27;;;;;;;2.08;0.82;;;;;;;8.62;49.00;103191.84;5050304;28;20029;-76
2021/04/14 10:57:08;;;;;;;3.40;0.77;;;;;;;9.02;47.58;103187.91;5035108;28;20041;-76
2021/04/14 10:59:35;;;;;;;0.98;0.70;;;;;;;9.35;44.76;103178.13;5046523;28;20041;-76
2021/04/14 11:02:07;;;;;;;3.45;1.17;;;;;;;8.67;43.38;103191.69;5025743;28;20064;-77
2021/04/14 11:04:38;;;;;;;2.08;0.57;;;;;;;8.19;41.79;103189.66;5049234;28;20036;-77
2021/04/14 11:07:08;;;;;;;3.15;0.77;;;;;;;8.16;44.32;103189.78;5031739;28;20040;-77
2021/04/14 11:09:39;;;;;;;1.13;0.57;;;;;;;9.22;42.24;103177.69;5048922;28;20037;-74
2021/04/14 11:12:09;;;;;;;2.05;0.77;;;;;;;9.54;40.88;103180.91;5032618;28;20486;-76
2021/04/14 11:14:40;;;;;;;6.22;0.95;;;;;;;9.37;43.20;103181.50;5039439;28;20041;-78
2021/04/14 11:17:07;;;;;;;6.93;1.00;;;;;;;9.06;43.87;103187.75;5011365;28;20447;-78
2021/04/14 11:19:34;;;;;;;2.88;0.73;;;;;;;8.81;44.37;103181.69;5025648;28;20056;-78
2021/04/14 11:22:08;;;;;;;0.50;0.50;;;;;;;8.63;42.32;103188.34;5016310;28;20098;-78
2021/04/14 11:24:56;;;;;;;3.15;0.80;;;;;;;9.59;39.89;103176.38;5010615;28;20042;-78
2021/04/14 11:27:30;;;;;;;3.60;0.55;;;;;;;10.32;40.09;103175.38;5039181;28;20037;-78
2021/04/14 11:30:15;;;;;;;3.83;1.40;;;;;;;10.90;42.20;103173.84;5014293;28;20060;-78
2021/04/14 11:32:52;;;;;;;4.95;0.80;;;;;;;11.38;39.77;103163.09;5041503;28;20037;-78
2021/04/14 11:35:33;;;;;;;3.25;1.27;;;;;;;11.72;36.18;103158.97;5016208;28;20116;-78
2021/04/14 11:37:58;;;;;;;2.80;1.63;;;;;;;12.21;37.33;103141.03;5029308;28;20044;-77
2021/04/14 11:40:38;;;;;;;2.28;0.70;;;;;;;12.58;37.85;103158.41;5012496;28;20479;-78
2021/04/14 11:43:26;;;;;;;3.80;0.60;;;;;;;12.85;35.05;103156.16;5018691;28;20041;-78
2021/04/14 11:46:01;;;;;;;1.55;0.60;;;;;;;12.54;34.65;103152.47;5034204;28;20491;-78
2021/04/14 11:48:40;;;;;;;3.22;1.15;;;;;;;12.70;36.80;103145.56;5022743;28;20270;-77
2021/04/14 11:51:29;;;;;;;2.83;0.75;;;;;;;12.71;37.20;103139.41;5010564;28;20416;-78
2021/04/14 11:54:00;;;;;;;2.58;1.27;;;;;;;12.42;37.55;103154.84;5013899;28;20810;-77
2021/04/14 11:56:32;;;;;;;6.30;1.80;;;;;;;12.97;37.58;103145.09;5036807;28;20067;-78
2021/04/14 11:58:58;;;;;;;2.58;0.70;;;;;;;13.07;35.45;103148.91;5019987;28;20498;-78
2021/04/14 12:01:27;;;;;;;4.03;1.50;;;;;;;13.11;32.59;103145.25;5056938;28;20076;-77
2021/04/14 12:03:53;;;;;;;2.40;0.75;;;;;;;13.37;32.97;103125.56;4949841;28;20513;-78
2021/04/14 12:06:20;;;;;;;2.50;1.10;;;;;;;13.64;32.88;103138.94;5018845;28;20026;-78
2021/04/14 12:08:46;;;;;;;4.28;0.70;;;;;;;14.21;33.50;103152.41;4978789;28;20530;-78